METAR AND TAF INFORMATION
METAR FOR UAII
ADDS - METARS form results

(2306 UTC 15 September 2019)
Data provider http://aviationweather.gov/metar/data/
 
METAR text: UAII 152300Z 12004MPS CAVOK 11/07 Q1019 R10/0///70 NOSIG RMK QFE729/0972
Conditions at: UAII (CIMKENT , KZ) observed 2300 UTC 15 September 2019
Temperature: 11.0°C (52°F)
Dewpoint: 7.0°C (45°F) [RH = 76%]
Pressure (altimeter): 30.09 inches Hg (1019.0 mb)
Winds: from the ESE (120 degrees) at 9 MPH (8 knots; 4.1 m/s)
Visibility: 6 or more miles (10+ km)
Ceiling: ceiling and visibility are OK
Clouds: unknown
Weather: no significant weather observed at this time

METAR text: UAII 152230Z 12003MPS CAVOK 10/07 Q1019 R10/0///70 NOSIG RMK QFE729/0972
Conditions at: UAII (CIMKENT , KZ) observed 2230 UTC 15 September 2019
Temperature: 10.0°C (50°F)
Dewpoint: 7.0°C (45°F) [RH = 82%]
Pressure (altimeter): 30.09 inches Hg (1019.0 mb)
Winds: from the ESE (120 degrees) at 7 MPH (6 knots; 3.1 m/s)
Visibility: 6 or more miles (10+ km)
Ceiling: ceiling and visibility are OK
Clouds: unknown
Weather: no significant weather observed at this time

Forecast for: UAII (CIMKENT , KZ)
Text: TAF UAII 151700Z 1518/1618 12005MPS 6000 SCT050CB BKN100 TX26/1610Z TN12/1601Z
Forecast period: 1800 UTC 15 September 2019 to 1800 UTC 16 September 2019
Forecast type: FROM: standard forecast or significant change
Winds: from the ESE (120 degrees) at 12 MPH (10 knots; 5.1 m/s)
Visibility: 4 miles (6 km)
Ceiling: 10000 feet AGL
Clouds: scattered clouds at 5000 feet AGL
broken clouds at 10000 feet AGL
Weather: no significant weather forecast for this period
Text: TEMPO 1518/1522 16003G08MPS -TSRA BKN033CB
Forecast period: 1800 to 2200 UTC 15 September 2019
Forecast type: TEMPORARY: The following changes expected for less than half the time period
Winds: from the SSE (160 degrees) at 7 MPH (6 knots; 3.1 m/s)
gusting to 18 MPH (16 knots; 8.2 m/s)
Visibility: missing
Ceiling: 3300 feet AGL
Clouds: broken clouds at 3300 feet AGL
Weather: -TSRA  (light rain associated with thunderstorm(s))
Text: TEMPO 1603/1612 27007G12MPS BKN040CB
Forecast period: 0300 to 1200 UTC 16 September 2019
Forecast type: TEMPORARY: The following changes expected for less than half the time period
Winds: from the W (270 degrees) at 16 MPH (14 knots; 7.2 m/s)
gusting to 26 MPH (23 knots; 11.8 m/s)
Visibility: missing
Ceiling: 4000 feet AGL
Clouds: broken clouds at 4000 feet AGL
Weather: no significant weather forecast for this period

 AIRPORT MAP

 RUNWAY INFORMATION

 AIRPORT FREQUENCIES
Type TWR Name TWR Frequency 118.7 MHZ

 AIRPORT NEAR NAVIGATION AIDS
Type NDB Name Shymkent Frequency 360 KHZ
Type NDB Name Shymkent Frequency 360 KHZ



2018 Air Astana Virtual Airline